Time;durP1;ratioP1;P1;durP2;ratioP2;P2;SDS_P1;SDS_P2;PMS_P1;PMS_P2;Temp;Humidity;BMP_temperature;BMP_pressure;BME280_temperature;BME280_humidity;BME280_pressure;Samples;Min_cycle;Max_cycle;Signal;HPM_P1;HPM_P2
2021/10/23 00:00:57;;;;;;;4.10;2.43;;;;;;;9.75;60.06;97415.03;5073012;28;20209;-68
2021/10/23 00:03:22;;;;;;;5.33;2.23;;;;;;;9.68;59.98;97409.53;5074710;28;20178;-66
2021/10/23 00:05:48;;;;;;;7.63;2.70;;;;;;;9.33;61.14;97416.19;5072891;28;20539;-69
2021/10/23 00:08:13;;;;;;;3.43;2.10;;;;;;;9.52;60.01;97412.72;5057855;28;20210;-68
2021/10/23 00:10:39;;;;;;;4.03;2.23;;;;;;;9.74;59.69;97408.16;5064621;28;20553;-68
2021/10/23 00:13:05;;;;;;;7.27;2.60;;;;;;;9.75;59.48;97419.44;5072805;28;20228;-67
2021/10/23 00:15:31;;;;;;;3.87;2.50;;;;;;;9.77;59.11;97412.25;5074304;28;20196;-66
2021/10/23 00:17:57;;;;;;;7.23;2.40;;;;;;;9.71;60.13;97418.03;5068772;28;20444;-67
2021/10/23 00:20:23;;;;;;;4.00;2.60;;;;;;;9.81;59.65;97422.31;5068819;28;20413;-67
2021/10/23 00:22:49;;;;;;;5.20;2.03;;;;;;;9.62;60.16;97420.56;5076388;28;20194;-67
2021/10/23 00:25:14;;;;;;;6.47;3.00;;;;;;;9.59;59.82;97414.78;5073241;28;20447;-67
2021/10/23 00:27:40;;;;;;;4.37;2.40;;;;;;;9.71;60.17;97407.56;5067894;28;20267;-67
2021/10/23 00:30:06;;;;;;;8.67;2.83;;;;;;;9.86;59.58;97405.34;5073613;28;20577;-66
2021/10/23 00:32:32;;;;;;;6.23;2.13;;;;;;;9.90;59.15;97404.91;5073785;28;20643;-67
2021/10/23 00:34:58;;;;;;;8.10;3.23;;;;;;;9.58;60.76;97408.72;5073759;28;20432;-67
2021/10/23 00:37:23;;;;;;;12.20;2.50;;;;;;;10.06;59.44;97406.91;5067664;28;20240;-68
2021/10/23 00:39:49;;;;;;;10.70;2.80;;;;;;;9.63;60.52;97411.75;5068832;28;20520;-68
2021/10/23 00:42:16;;;;;;;8.40;2.80;;;;;;;9.45;61.04;97402.97;5074049;28;20275;-68
2021/10/23 00:44:42;;;;;;;11.53;2.90;;;;;;;9.53;60.51;97410.94;5074051;28;20460;-68
2021/10/23 00:47:13;;;;;;;8.40;2.40;;;;;;;9.43;61.64;97418.00;5055337;28;20273;-68
2021/10/23 00:49:40;;;;;;;7.50;2.47;;;;;;;9.47;61.01;97412.34;5072266;28;20935;-66
2021/10/23 00:52:07;;;;;;;2.90;1.90;;;;;;;9.66;61.11;97415.84;5073920;28;20882;-66
2021/10/23 00:54:33;;;;;;;6.40;2.37;;;;;;;9.30;61.95;97405.19;5073198;28;20795;-65
2021/10/23 00:57:01;;;;;;;6.90;2.63;;;;;;;9.39;61.92;97414.78;5065773;28;20447;-67
2021/10/23 00:59:27;;;;;;;8.63;2.40;;;;;;;9.33;61.74;97425.84;5059842;28;21013;-67
2021/10/23 01:01:53;;;;;;;8.10;2.50;;;;;;;9.27;62.25;97419.38;5072995;28;20433;-68
2021/10/23 01:04:20;;;;;;;6.20;2.60;;;;;;;9.42;61.77;97422.38;5069243;28;20844;-66
2021/10/23 01:06:46;;;;;;;5.87;2.60;;;;;;;9.48;61.43;97419.22;5058990;28;20429;-68
2021/10/23 01:09:12;;;;;;;4.10;2.13;;;;;;;9.46;61.53;97426.38;5069500;28;20804;-68
2021/10/23 01:11:38;;;;;;;6.43;2.63;;;;;;;9.62;61.33;97433.63;5066860;28;20896;-66
2021/10/23 01:14:03;;;;;;;5.70;2.23;;;;;;;9.36;61.98;97441.25;5072900;28;20515;-67
2021/10/23 01:16:29;;;;;;;9.57;2.80;;;;;;;9.09;62.61;97434.94;5070462;28;20186;-68
2021/10/23 01:18:54;;;;;;;4.30;2.30;;;;;;;9.51;61.38;97439.84;5069805;28;20770;-68
2021/10/23 01:21:23;;;;;;;7.03;2.47;;;;;;;9.51;62.22;97434.63;5069193;28;20179;-66
2021/10/23 01:23:50;;;;;;;6.30;2.70;;;;;;;9.65;61.18;97433.38;5069286;28;20193;-67
2021/10/23 01:26:22;;;;;;;6.73;2.40;;;;;;;9.84;60.85;97429.03;5066234;28;20511;-69
2021/10/23 01:28:49;;;;;;;4.40;2.17;;;;;;;9.90;60.22;97433.72;5069457;28;20445;-67
2021/10/23 01:31:14;;;;;;;7.80;2.40;;;;;;;9.79;60.68;97437.31;5063752;28;20472;-69
2021/10/23 01:33:40;;;;;;;12.60;2.80;;;;;;;9.93;60.75;97436.06;5072695;28;20440;-68
2021/10/23 01:36:10;;;;;;;6.47;2.50;;;;;;;9.88;60.62;97440.88;5063847;28;20195;-67
2021/10/23 01:38:37;;;;;;;8.00;2.50;;;;;;;9.80;60.81;97435.53;5071963;28;20289;-67
2021/10/23 01:41:03;;;;;;;7.23;3.53;;;;;;;9.76;60.98;97427.16;5072148;28;20428;-67
2021/10/23 01:43:29;;;;;;;5.57;2.87;;;;;;;9.71;61.11;97433.75;5072241;28;20455;-68
2021/10/23 01:45:54;;;;;;;11.63;3.10;;;;;;;9.74;61.66;97443.94;5070476;28;20460;-68
2021/10/23 01:48:36;;;;;;;8.33;2.33;;;;;;;9.45;61.95;97444.84;5072145;28;20207;-66
2021/10/23 01:51:03;;;;;;;10.23;2.70;;;;;;;9.55;62.21;97445.66;5042632;28;20214;-67
2021/10/23 01:53:32;;;;;;;7.03;2.57;;;;;;;9.34;62.53;97441.38;5040537;28;20457;-67
2021/10/23 01:55:59;;;;;;;3.60;2.20;;;;;;;9.30;62.85;97447.03;5043182;28;20435;-66
2021/10/23 01:58:25;;;;;;;6.20;2.23;;;;;;;9.35;62.82;97439.59;5050625;28;20453;-69
2021/10/23 02:00:50;;;;;;;6.00;2.37;;;;;;;9.29;63.20;97441.00;5050700;28;20461;-66
2021/10/23 02:03:16;;;;;;;5.50;2.60;;;;;;;9.34;62.67;97438.75;5050709;28;20194;-68
2021/10/23 02:05:42;;;;;;;9.50;2.40;;;;;;;9.38;63.11;97437.53;5051569;28;20199;-67
2021/10/23 02:08:07;;;;;;;5.33;2.50;;;;;;;9.44;63.16;97443.19;5049908;28;20673;-66
2021/10/23 02:10:33;;;;;;;7.73;2.57;;;;;;;9.58;62.69;97447.16;5050563;28;20289;-66
2021/10/23 02:12:59;;;;;;;5.47;2.40;;;;;;;9.48;62.81;97444.53;5051635;28;20187;-66
2021/10/23 02:15:25;;;;;;;5.30;2.33;;;;;;;9.44;63.21;97446.59;5051520;28;20215;-66
2021/10/23 02:17:50;;;;;;;5.93;2.40;;;;;;;9.62;62.39;97445.91;5049593;28;20481;-69
2021/10/23 02:20:16;;;;;;;5.37;2.60;;;;;;;9.48;63.40;97444.53;5052265;28;20229;-66
2021/10/23 02:22:42;;;;;;;7.50;2.50;;;;;;;9.68;62.45;97442.72;5057621;28;20195;-68
2021/10/23 02:25:09;;;;;;;7.80;2.60;;;;;;;9.49;63.15;97446.19;5051335;28;20451;-66
2021/10/23 02:27:35;;;;;;;5.33;2.50;;;;;;;9.56;62.92;97443.84;5049993;28;20245;-66
2021/10/23 02:30:01;;;;;;;7.57;2.37;;;;;;;9.51;63.48;97454.72;5050938;28;20517;-66
2021/10/23 02:32:26;;;;;;;8.27;2.33;;;;;;;9.48;63.75;97449.78;5056415;28;20179;-67
2021/10/23 02:34:52;;;;;;;7.33;2.70;;;;;;;9.58;63.28;97447.97;5052680;28;20222;-68
2021/10/23 02:37:17;;;;;;;11.10;2.57;;;;;;;9.59;63.00;97447.00;5050634;28;20195;-67
2021/10/23 02:39:43;;;;;;;7.87;2.67;;;;;;;9.65;63.05;97454.31;5051303;28;20622;-67
2021/10/23 02:42:08;;;;;;;6.50;3.00;;;;;;;9.76;62.94;97453.34;5033197;28;20231;-67
2021/10/23 02:44:34;;;;;;;6.40;2.87;;;;;;;9.78;63.13;97451.38;5049843;28;20183;-66
2021/10/23 02:47:00;;;;;;;7.03;2.10;;;;;;;9.65;63.77;97446.44;5051072;28;20209;-68
2021/10/23 02:49:26;;;;;;;8.50;2.73;;;;;;;9.60;63.99;97453.88;5049353;28;20577;-68
2021/10/23 02:51:52;;;;;;;12.87;4.90;;;;;;;9.79;62.97;97455.63;5052765;28;20913;-66
2021/10/23 02:54:18;;;;;;;12.93;2.77;;;;;;;9.86;62.85;97449.84;5051390;28;20433;-65
2021/10/23 02:56:43;;;;;;;4.50;2.47;;;;;;;9.81;62.45;97455.53;5049886;28;20277;-67
2021/10/23 02:59:09;;;;;;;9.57;2.70;;;;;;;9.51;63.91;97457.34;5053508;28;20205;-67
2021/10/23 03:01:35;;;;;;;5.60;2.80;;;;;;;9.44;64.20;97458.88;5054470;28;20179;-67
2021/10/23 03:04:00;;;;;;;6.13;2.80;;;;;;;9.65;63.21;97462.16;5049363;28;20190;-68
2021/10/23 03:06:26;;;;;;;6.50;2.73;;;;;;;9.95;62.44;97460.31;5037598;28;20474;-67
2021/10/23 03:08:52;;;;;;;2.67;2.27;;;;;;;9.96;62.50;97464.56;5041390;28;20206;-67
2021/10/23 03:11:17;;;;;;;3.50;2.20;;;;;;;10.05;62.00;97462.88;5050779;28;20698;-67
2021/10/23 03:13:43;;;;;;;5.80;2.47;;;;;;;10.05;62.25;97462.06;5049484;28;20193;-68
2021/10/23 03:16:09;;;;;;;8.90;2.60;;;;;;;9.96;62.85;97464.56;5032427;28;20689;-67
2021/10/23 03:18:35;;;;;;;4.20;2.37;;;;;;;10.20;62.36;97465.88;5012688;28;20219;-67
2021/10/23 03:21:00;;;;;;;4.67;2.70;;;;;;;10.32;61.51;97463.06;5047931;28;20421;-68
2021/10/23 03:23:26;;;;;;;9.20;2.77;;;;;;;10.48;61.37;97468.53;5062331;28;20190;-68
2021/10/23 03:25:52;;;;;;;7.47;2.30;;;;;;;10.58;61.01;97474.59;5053165;28;20673;-69
2021/10/23 03:28:17;;;;;;;6.53;2.80;;;;;;;10.62;60.52;97469.88;5050276;28;20704;-68
2021/10/23 03:30:43;;;;;;;7.63;2.70;;;;;;;10.64;60.50;97477.56;5042454;28;20275;-67
2021/10/23 03:33:09;;;;;;;7.37;2.63;;;;;;;10.65;60.23;97481.84;5067888;28;20601;-67
2021/10/23 03:35:35;;;;;;;6.03;2.50;;;;;;;10.53;60.47;97473.34;5054463;28;20203;-67
2021/10/23 03:38:00;;;;;;;8.10;3.10;;;;;;;10.64;59.94;97482.81;5016456;28;20203;-68
2021/10/23 03:40:26;;;;;;;6.73;2.63;;;;;;;10.58;60.06;97474.59;5050858;28;20418;-66
2021/10/23 03:42:52;;;;;;;4.77;2.90;;;;;;;10.60;60.08;97480.47;5052109;28;20214;-68
2021/10/23 03:45:17;;;;;;;7.70;2.47;;;;;;;10.56;60.13;97481.75;5052066;28;20699;-68
2021/10/23 03:47:43;;;;;;;5.10;2.80;;;;;;;10.57;60.23;97477.31;5050920;28;20203;-68
2021/10/23 03:50:09;;;;;;;9.70;2.70;;;;;;;10.60;60.16;97484.91;5043385;28;20732;-67
2021/10/23 03:52:35;;;;;;;5.10;2.60;;;;;;;10.64;60.01;97482.81;5055933;28;20430;-68
2021/10/23 03:55:01;;;;;;;4.40;2.40;;;;;;;10.65;59.95;97484.47;5050422;28;20429;-66
2021/10/23 03:57:26;;;;;;;8.07;2.60;;;;;;;10.58;60.36;97482.44;5052035;28;20487;-67
2021/10/23 03:59:52;;;;;;;5.83;2.97;;;;;;;10.63;59.86;97489.88;5050860;28;20174;-67
2021/10/23 04:02:18;;;;;;;6.03;2.90;;;;;;;10.57;59.97;97483.41;5062867;28;20205;-68
2021/10/23 04:04:43;;;;;;;3.87;2.10;;;;;;;10.64;60.14;97488.06;5040697;28;20190;-65
2021/10/23 04:07:09;;;;;;;7.10;2.50;;;;;;;10.65;60.16;97487.91;5048536;28;20249;-67
2021/10/23 04:09:35;;;;;;;6.70;3.10;;;;;;;10.65;60.42;97484.47;5068777;28;20202;-66
2021/10/23 04:12:01;;;;;;;6.13;2.40;;;;;;;10.63;60.63;97491.66;5044626;28;20188;-67
2021/10/23 04:14:26;;;;;;;6.50;3.20;;;;;;;10.64;60.20;97488.91;5056802;28;20209;-66
2021/10/23 04:16:52;;;;;;;4.87;1.93;;;;;;;10.66;60.53;97491.34;5040936;28;20516;-65
2021/10/23 04:19:17;;;;;;;4.23;2.60;;;;;;;10.68;60.53;97487.63;5070147;28;20210;-67
2021/10/23 04:21:43;;;;;;;10.93;2.87;;;;;;;10.65;60.66;97495.75;5069149;28;20210;-67
2021/10/23 04:24:09;;;;;;;4.73;2.50;;;;;;;10.66;60.35;97486.13;5062553;28;20269;-67
2021/10/23 04:26:39;;;;;;;9.50;3.13;;;;;;;10.66;60.59;97491.34;5032588;28;20648;-67
2021/10/23 04:29:05;;;;;;;7.30;3.13;;;;;;;10.67;60.95;97487.78;5050566;28;20452;-68
2021/10/23 04:31:30;;;;;;;7.03;2.57;;;;;;;10.66;60.53;97488.75;5052272;28;20461;-67
2021/10/23 04:33:56;;;;;;;3.17;2.27;;;;;;;10.65;60.69;97484.47;5054512;28;20508;-67
2021/10/23 04:36:22;;;;;;;6.80;2.80;;;;;;;10.64;60.59;97482.81;5022715;28;20208;-68
2021/10/23 04:38:47;;;;;;;7.90;2.70;;;;;;;10.61;60.96;97486.56;5048425;28;20211;-68
2021/10/23 04:41:13;;;;;;;10.13;2.70;;;;;;;10.63;60.93;97491.66;5053685;28;20494;-67
2021/10/23 04:43:39;;;;;;;7.90;2.70;;;;;;;10.58;61.05;97487.69;5061951;28;20809;-67
2021/10/23 04:46:04;;;;;;;6.83;2.77;;;;;;;10.59;60.94;97491.94;5053411;28;20265;-66
2021/10/23 04:48:33;;;;;;;4.50;2.43;;;;;;;10.58;61.07;97500.78;5053181;28;20574;-68
2021/10/23 04:50:58;;;;;;;6.80;2.33;;;;;;;10.42;61.21;97500.56;5042373;28;20215;-67
2021/10/23 04:53:24;;;;;;;6.90;3.23;;;;;;;10.40;61.28;97494.66;5061561;28;20803;-68
2021/10/23 04:55:50;;;;;;;4.63;3.47;;;;;;;10.46;61.22;97501.91;5061564;28;20277;-66
2021/10/23 04:58:15;;;;;;;7.00;2.77;;;;;;;10.24;61.49;97509.13;5058817;28;20253;-67
2021/10/23 05:00:41;;;;;;;6.30;3.30;;;;;;;10.25;61.90;97504.75;5032185;28;20186;-67
2021/10/23 05:03:07;;;;;;;7.47;2.80;;;;;;;10.29;61.92;97506.94;5051575;28;20521;-68
2021/10/23 05:05:32;;;;;;;6.80;3.23;;;;;;;10.19;61.67;97505.28;5059732;28;20190;-67
2021/10/23 05:07:58;;;;;;;10.63;2.70;;;;;;;10.27;61.72;97506.25;5040581;28;20586;-67
2021/10/23 05:10:23;;;;;;;5.07;2.57;;;;;;;10.30;61.62;97512.97;5046081;28;20227;-66
2021/10/23 05:12:49;;;;;;;7.40;2.97;;;;;;;10.33;61.98;97504.03;5052774;28;20280;-66
2021/10/23 05:15:14;;;;;;;9.63;3.00;;;;;;;10.31;61.69;97509.41;5057663;28;20681;-68
2021/10/23 05:17:40;;;;;;;5.30;2.80;;;;;;;10.30;61.63;97512.97;5056576;28;20227;-67
2021/10/23 05:20:07;;;;;;;7.10;2.93;;;;;;;10.16;61.93;97519.50;5071488;28;20531;-69
2021/10/23 05:22:32;;;;;;;5.20;2.43;;;;;;;10.18;62.03;97514.97;5065670;28;20232;-66
2021/10/23 05:24:58;;;;;;;7.43;2.80;;;;;;;10.22;61.70;97516.31;5072638;28;20445;-68
2021/10/23 05:27:23;;;;;;;7.33;2.90;;;;;;;10.18;61.80;97519.34;5072242;28;20228;-66
2021/10/23 05:29:49;;;;;;;8.07;3.40;;;;;;;10.20;61.63;97506.94;5072506;28;20234;-66
2021/10/23 05:32:15;;;;;;;4.67;2.93;;;;;;;10.24;62.09;97513.56;5064022;28;20665;-66
2021/10/23 05:34:40;;;;;;;8.33;2.63;;;;;;;10.20;61.88;97518.28;5065681;28;20317;-67
2021/10/23 05:37:06;;;;;;;8.63;2.73;;;;;;;10.21;61.98;97519.91;5071091;28;20277;-68
2021/10/23 05:39:32;;;;;;;8.07;2.77;;;;;;;10.16;61.87;97522.13;5072558;28;20806;-67
2021/10/23 05:41:57;;;;;;;6.47;2.83;;;;;;;10.10;61.83;97526.16;5054443;28;20231;-66
2021/10/23 05:44:23;;;;;;;12.30;3.33;;;;;;;10.22;62.03;97524.16;5072339;28;20364;-67
2021/10/23 05:46:48;;;;;;;7.83;3.00;;;;;;;10.14;62.02;97524.06;5060511;28;20183;-67
2021/10/23 05:49:14;;;;;;;6.67;3.40;;;;;;;10.08;62.67;97529.88;5073216;28;20567;-66
2021/10/23 05:51:40;;;;;;;26.27;5.03;;;;;;;10.24;62.01;97522.25;5063410;28;20203;-67
2021/10/23 05:54:06;;;;;;;8.53;3.20;;;;;;;10.31;61.96;97525.13;5056014;28;20194;-65
2021/10/23 05:56:31;;;;;;;10.50;3.03;;;;;;;10.12;61.75;97536.47;5070806;28;20273;-68
2021/10/23 05:59:10;;;;;;;14.80;3.90;;;;;;;10.27;61.88;97540.31;5071937;28;20226;-66
2021/10/23 06:01:42;;;;;;;6.70;3.10;;;;;;;10.26;61.77;97541.25;5071190;28;20244;-68
2021/10/23 06:04:07;;;;;;;5.67;3.00;;;;;;;10.26;61.91;97538.66;5070537;28;20433;-66
2021/10/23 06:06:33;;;;;;;5.40;2.73;;;;;;;10.32;61.71;97546.91;5070662;28;20425;-66
2021/10/23 06:09:00;;;;;;;5.10;3.07;;;;;;;10.40;61.83;97554.91;5071670;28;20206;-66
2021/10/23 06:11:26;;;;;;;6.03;2.60;;;;;;;10.47;61.37;97558.59;5071111;28;20244;-66
2021/10/23 06:13:55;;;;;;;5.60;3.47;;;;;;;10.45;61.09;97565.81;5074676;28;20444;-67
2021/10/23 06:16:21;;;;;;;6.10;3.10;;;;;;;10.55;60.97;97561.34;5069564;28;20292;-68
2021/10/23 06:18:47;;;;;;;4.60;2.70;;;;;;;10.51;60.92;97567.03;5078711;28;20547;-67
2021/10/23 06:21:12;;;;;;;6.33;2.60;;;;;;;10.57;60.93;97567.28;5079673;28;20481;-67
2021/10/23 06:23:38;;;;;;;7.00;3.07;;;;;;;10.60;60.61;97572.22;5057462;28;20186;-67
2021/10/23 06:26:04;;;;;;;5.90;2.80;;;;;;;10.67;60.67;97572.47;5077703;28;20191;-68
2021/10/23 06:28:29;;;;;;;5.30;2.90;;;;;;;10.65;60.66;97576.22;5080124;28;20210;-68
2021/10/23 06:30:55;;;;;;;7.33;2.70;;;;;;;10.80;60.17;97581.78;5072889;28;20241;-66
2021/10/23 06:33:21;;;;;;;6.17;2.83;;;;;;;10.78;60.36;97579.34;5073361;28;20197;-67
2021/10/23 06:35:47;;;;;;;10.50;3.10;;;;;;;10.85;59.68;97580.41;5072100;28;20202;-67
2021/10/23 06:38:12;;;;;;;11.87;2.90;;;;;;;10.84;59.71;97591.84;5070942;28;20844;-67
2021/10/23 06:40:38;;;;;;;7.83;2.77;;;;;;;10.65;60.03;97584.88;5071739;28;20179;-67
2021/10/23 06:43:04;;;;;;;5.63;2.93;;;;;;;10.78;59.83;97588.97;5070886;28;20189;-68
2021/10/23 06:45:29;;;;;;;6.40;3.47;;;;;;;10.80;59.80;97587.88;5065106;28;20655;-67
2021/10/23 06:47:56;;;;;;;5.03;3.30;;;;;;;10.73;59.97;97592.88;5065887;28;20206;-66
2021/10/23 06:50:22;;;;;;;5.03;3.60;;;;;;;10.85;59.78;97588.25;5072520;28;20202;-67
2021/10/23 06:52:48;;;;;;;5.70;3.00;;;;;;;10.89;59.45;97597.50;5058653;28;20430;-67
2021/10/23 06:55:14;;;;;;;8.40;3.07;;;;;;;10.83;59.60;97592.84;5063193;28;20421;-67
2021/10/23 06:57:39;;;;;;;5.50;2.87;;;;;;;10.96;58.98;97597.75;5073205;28;20206;-67
2021/10/23 07:00:06;;;;;;;11.30;2.67;;;;;;;10.85;59.05;97606.63;5087260;28;20261;-67
2021/10/23 07:02:40;;;;;;;5.20;2.50;;;;;;;10.78;59.82;97610.78;5078167;28;20195;-68
2021/10/23 07:05:11;;;;;;;8.37;3.10;;;;;;;10.87;59.47;97614.34;5069657;28;20767;-68
2021/10/23 07:07:36;;;;;;;9.60;3.33;;;;;;;10.93;59.09;97612.94;5069969;28;20445;-67
2021/10/23 07:10:03;;;;;;;7.37;3.10;;;;;;;11.02;59.10;97612.91;5062739;28;20460;-68
2021/10/23 07:12:28;;;;;;;4.03;2.53;;;;;;;11.13;58.91;97609.25;5071524;28;20218;-66
2021/10/23 07:14:56;;;;;;;14.97;3.37;;;;;;;11.21;57.91;97611.97;5080059;28;20516;-68
2021/10/23 07:17:22;;;;;;;7.17;2.93;;;;;;;11.18;58.48;97614.91;5051853;28;20217;-68
2021/10/23 07:19:48;;;;;;;4.97;2.53;;;;;;;11.36;57.95;97611.47;5071270;28;20487;-68
2021/10/23 07:22:14;;;;;;;5.53;3.00;;;;;;;10.97;58.54;97614.28;5054731;28;20193;-68
2021/10/23 07:24:39;;;;;;;7.87;2.90;;;;;;;11.09;58.48;97607.06;5071631;28;20508;-68
2021/10/23 07:27:05;;;;;;;8.00;3.10;;;;;;;11.19;58.04;97619.19;5069848;28;20182;-68
2021/10/23 07:29:30;;;;;;;6.27;2.97;;;;;;;11.19;58.02;97627.06;5069566;28;20210;-67
2021/10/23 07:31:56;;;;;;;7.20;2.97;;;;;;;11.34;57.19;97623.94;5070913;28;20193;-68
2021/10/23 07:34:22;;;;;;;7.00;2.97;;;;;;;11.36;57.75;97625.44;5071325;28;20258;-70
2021/10/23 07:36:48;;;;;;;9.23;4.43;;;;;;;11.27;57.67;97620.22;5070626;28;20255;-67
2021/10/23 07:39:14;;;;;;;11.20;3.07;;;;;;;11.27;57.46;97635.97;5070878;28;20252;-66
2021/10/23 07:41:41;;;;;;;5.80;3.07;;;;;;;11.39;57.44;97645.31;5071661;28;20962;-67
2021/10/23 07:44:10;;;;;;;6.30;3.03;;;;;;;11.39;57.21;97640.06;5075238;28;20428;-71
2021/10/23 07:46:35;;;;;;;15.23;3.10;;;;;;;11.38;56.49;97641.03;5062947;28;20432;-67
2021/10/23 07:49:02;;;;;;;7.90;2.43;;;;;;;10.59;59.25;97648.38;5072976;28;20444;-68
2021/10/23 07:51:28;;;;;;;6.87;2.83;;;;;;;11.11;57.89;97647.09;5074884;28;20214;-68
2021/10/23 07:53:54;;;;;;;4.67;2.50;;;;;;;11.24;56.89;97649.38;5074834;28;20432;-67
2021/10/23 07:56:20;;;;;;;12.27;3.13;;;;;;;11.33;56.73;97651.16;5074111;28;20194;-67
2021/10/23 07:58:46;;;;;;;6.53;2.87;;;;;;;10.46;59.76;97659.13;5073226;28;20274;-67
2021/10/23 08:01:13;;;;;;;6.37;3.67;;;;;;;11.30;57.21;97657.50;5060935;28;20716;-68
2021/10/23 08:03:38;;;;;;;8.70;3.20;;;;;;;11.14;57.76;97658.13;5074949;28;20185;-68
2021/10/23 08:06:04;;;;;;;9.83;3.30;;;;;;;11.49;57.27;97666.25;5073349;28;20482;-67
2021/10/23 08:08:30;;;;;;;5.00;3.10;;;;;;;11.76;56.75;97657.50;5074401;28;20206;-69
2021/10/23 08:10:58;;;;;;;5.40;2.90;;;;;;;11.90;56.40;97657.97;5074393;28;20640;-67
2021/10/23 08:13:24;;;;;;;8.33;3.40;;;;;;;12.04;55.96;97664.53;5074672;28;20435;-69
2021/10/23 08:15:50;;;;;;;4.43;2.73;;;;;;;11.97;56.05;97664.28;5061199;28;20434;-65
2021/10/23 08:18:16;;;;;;;5.90;2.60;;;;;;;11.90;56.39;97668.47;5055918;28;20270;-66
2021/10/23 08:20:42;;;;;;;9.80;3.43;;;;;;;11.95;56.33;97661.00;5074664;28;20795;-67
2021/10/23 08:23:08;;;;;;;6.20;2.83;;;;;;;11.36;57.86;97677.91;5065590;28;20431;-67
2021/10/23 08:25:34;;;;;;;7.50;3.10;;;;;;;12.07;56.13;97667.69;5061017;28;20517;-65
2021/10/23 08:28:01;;;;;;;7.00;3.10;;;;;;;12.20;56.33;97669.94;5070038;28;20448;-67
2021/10/23 08:30:26;;;;;;;7.50;3.50;;;;;;;12.59;54.73;97674.03;5074002;28;20456;-67
2021/10/23 08:32:52;;;;;;;6.20;2.87;;;;;;;12.26;55.68;97669.34;5072261;28;20838;-66
2021/10/23 08:35:18;;;;;;;13.33;2.80;;;;;;;12.74;54.40;97671.66;5068887;28;20187;-68
2021/10/23 08:37:45;;;;;;;4.37;2.50;;;;;;;12.74;54.51;97675.09;5068473;28;20622;-67
2021/10/23 08:40:11;;;;;;;4.90;2.80;;;;;;;13.28;52.79;97675.91;5072377;28;20433;-67
2021/10/23 08:42:37;;;;;;;11.27;3.00;;;;;;;13.49;51.98;97660.53;5073589;28;20451;-66
2021/10/23 08:45:05;;;;;;;8.43;3.80;;;;;;;13.58;51.94;97663.19;5056987;28;20428;-67
2021/10/23 08:47:32;;;;;;;10.53;2.90;;;;;;;13.41;52.40;97664.94;5053144;28;20264;-67
2021/10/23 08:49:58;;;;;;;8.07;3.17;;;;;;;13.48;52.16;97669.41;5055966;28;20453;-67
2021/10/23 08:52:26;;;;;;;6.60;3.30;;;;;;;13.71;51.92;97673.28;5072357;28;20785;-67
2021/10/23 08:54:52;;;;;;;7.10;2.80;;;;;;;13.83;50.64;97677.25;5070710;28;20826;-67
2021/10/23 08:57:18;;;;;;;8.90;3.50;;;;;;;13.61;51.65;97674.22;5063821;28;20425;-68
2021/10/23 08:59:44;;;;;;;6.27;2.70;;;;;;;14.12;50.00;97670.69;5064035;28;21228;-67
2021/10/23 09:02:10;;;;;;;6.70;3.33;;;;;;;14.48;49.22;97661.63;5066385;28;20182;-66
2021/10/23 09:04:37;;;;;;;7.83;2.70;;;;;;;14.52;48.82;97669.03;5072404;28;20429;-67
2021/10/23 09:07:12;;;;;;;8.37;3.27;;;;;;;14.68;48.70;97677.97;5071539;28;20577;-66
2021/10/23 09:09:51;;;;;;;7.03;3.03;;;;;;;13.45;51.34;97679.44;5073266;28;20497;-66
2021/10/23 09:12:27;;;;;;;6.73;2.50;;;;;;;13.87;50.64;97686.47;5060343;28;20934;-66
2021/10/23 09:15:03;;;;;;;7.03;3.40;;;;;;;13.64;51.24;97683.63;5073818;28;20738;-68
2021/10/23 09:17:33;;;;;;;10.90;2.90;;;;;;;13.74;50.52;97673.75;5048833;28;20444;-67
2021/10/23 09:20:07;;;;;;;8.80;3.70;;;;;;;13.97;50.23;97684.53;5068147;28;20785;-65
2021/10/23 09:22:35;;;;;;;6.27;2.80;;;;;;;14.28;49.66;97683.88;5054036;28;20429;-67
2021/10/23 09:25:19;;;;;;;6.53;2.57;;;;;;;14.03;50.04;97680.41;5073914;28;20962;-66
2021/10/23 09:28:12;;;;;;;9.63;3.07;;;;;;;14.35;49.16;97675.31;5065303;28;20460;-65
2021/10/23 09:30:46;;;;;;;18.07;2.57;;;;;;;14.67;48.17;97679.78;5060623;28;20566;-67
2021/10/23 09:33:20;;;;;;;5.77;2.60;;;;;;;15.05;47.55;97681.84;5070404;28;20795;-67
2021/10/23 09:35:55;;;;;;;5.73;3.73;;;;;;;15.16;47.24;97675.41;5074711;28;20428;-67
2021/10/23 09:38:26;;;;;;;7.40;3.13;;;;;;;15.31;46.92;97676.31;5071209;28;20853;-66
2021/10/23 09:40:56;;;;;;;5.63;2.80;;;;;;;15.51;46.01;97671.44;5063649;28;20425;-65
2021/10/23 09:43:23;;;;;;;5.40;3.00;;;;;;;15.81;45.19;97670.81;5067161;28;20504;-66
2021/10/23 09:45:55;;;;;;;6.33;2.40;;;;;;;15.73;43.85;97671.69;5037047;28;20449;-67
2021/10/23 09:48:36;;;;;;;6.43;2.40;;;;;;;15.99;43.53;97673.22;5056464;28;20965;-66
2021/10/23 09:51:26;;;;;;;6.53;2.70;;;;;;;16.13;44.22;97675.06;5054294;28;20469;-66
2021/10/23 09:53:56;;;;;;;9.40;3.30;;;;;;;15.90;44.64;97674.22;5038737;28;20460;-66
2021/10/23 09:56:33;;;;;;;7.87;1.97;;;;;;;16.15;42.45;97682.00;5041571;28;20425;-66
2021/10/23 09:59:10;;;;;;;2.60;2.17;;;;;;;16.01;43.31;97680.94;5028460;28;20461;-65
2021/10/23 10:01:40;;;;;;;4.70;2.60;;;;;;;15.99;42.25;97680.31;5045540;28;20450;-68
2021/10/23 10:04:13;;;;;;;5.63;1.90;;;;;;;15.76;42.19;97681.06;5047472;28;20426;-67
2021/10/23 10:06:46;;;;;;;5.23;2.20;;;;;;;15.18;43.68;97684.78;5047138;28;20786;-67
2021/10/23 10:09:21;;;;;;;5.17;2.87;;;;;;;15.01;44.70;97691.09;5051655;28;20453;-64
2021/10/23 10:11:48;;;;;;;6.50;3.43;;;;;;;13.20;51.35;97700.38;5060162;28;20464;-65
2021/10/23 10:14:15;;;;;;;6.97;2.80;;;;;;;12.98;52.81;97706.97;5047145;28;20418;-67
2021/10/23 10:16:44;;;;;;;11.17;2.50;;;;;;;12.93;53.51;97712.69;5041497;28;20430;-66
2021/10/23 10:19:10;;;;;;;8.60;2.40;;;;;;;12.79;53.97;97710.63;5051217;28;20480;-67
2021/10/23 10:21:39;;;;;;;5.50;2.90;;;;;;;12.30;55.23;97722.41;5057108;28;20417;-65
2021/10/23 10:24:14;;;;;;;6.63;3.37;;;;;;;12.46;54.83;97720.91;5061053;28;20191;-66
2021/10/23 10:26:40;;;;;;;5.20;2.70;;;;;;;12.81;53.80;97711.31;5050477;28;20775;-66
2021/10/23 10:29:06;;;;;;;9.40;3.00;;;;;;;13.35;52.02;97717.22;5049844;28;20511;-66
2021/10/23 10:32:19;;;;;;;6.10;2.60;;;;;;;13.62;51.38;97715.38;5046018;28;20485;-66
2021/10/23 10:37:56;;;;;;;5.17;2.47;;;;;;;13.20;52.40;97703.81;5049687;28;20877;-66
2021/10/23 10:42:51;;;;;;;6.67;3.33;;;;;;;13.35;51.84;97709.31;5051171;28;20463;-66
2021/10/23 10:45:28;;;;;;;8.00;3.03;;;;;;;13.51;51.99;97710.38;5052401;28;20444;-66
2021/10/23 10:48:17;;;;;;;15.43;3.50;;;;;;;13.20;52.58;97716.16;5065819;28;20817;-67
2021/10/23 10:50:45;;;;;;;9.43;3.07;;;;;;;13.58;51.20;97711.41;5052201;28;20464;-66
2021/10/23 10:53:26;;;;;;;5.43;2.90;;;;;;;14.35;49.60;97696.41;5053933;28;20441;-66
2021/10/23 10:55:56;;;;;;;5.73;3.20;;;;;;;15.03;47.48;97689.94;5067983;28;20868;-69
2021/10/23 10:58:43;;;;;;;7.23;2.57;;;;;;;15.61;45.09;97686.28;5043926;28;20464;-66
2021/10/23 11:01:13;;;;;;;7.07;3.00;;;;;;;15.63;45.03;97689.53;5041214;28;20509;-67
2021/10/23 11:03:38;;;;;;;3.70;2.40;;;;;;;15.60;44.97;97690.72;5049501;28;20924;-67
2021/10/23 11:06:35;;;;;;;5.77;4.10;;;;;;;15.12;46.02;97690.72;5044451;28;20426;-66
2021/10/23 11:09:15;;;;;;;12.30;4.00;;;;;;;15.15;45.76;97686.94;5048346;28;20217;-65
2021/10/23 11:11:44;;;;;;;9.50;4.47;;;;;;;14.08;47.74;97687.84;5059418;28;20461;-66
2021/10/23 11:14:19;;;;;;;5.90;3.17;;;;;;;13.81;48.36;97697.66;5034348;28;20434;-66
2021/10/23 11:16:54;;;;;;;7.77;3.13;;;;;;;14.65;46.58;97686.16;5044393;28;20452;-65
2021/10/23 11:19:30;;;;;;;15.23;3.93;;;;;;;14.95;46.02;97687.31;5044532;28;21172;-65
2021/10/23 11:22:20;;;;;;;6.80;3.20;;;;;;;15.01;46.12;97688.44;5058611;28;20423;-66
2021/10/23 11:24:47;;;;;;;7.30;3.33;;;;;;;14.04;47.81;97689.13;5047254;28;20516;-69
2021/10/23 11:27:51;;;;;;;7.57;3.00;;;;;;;14.40;47.36;97679.13;5059032;28;20429;-66
2021/10/23 11:30:31;;;;;;;15.23;10.17;;;;;;;14.71;47.01;97685.56;5046263;28;20481;-67
2021/10/23 11:33:05;;;;;;;11.67;5.73;;;;;;;14.46;47.13;97688.19;5048548;28;20749;-67
2021/10/23 11:35:38;;;;;;;11.60;4.20;;;;;;;14.70;46.20;97682.06;5059115;28;20759;-66
2021/10/23 11:38:06;;;;;;;6.50;3.33;;;;;;;14.27;47.67;97689.31;5050401;28;20477;-68
2021/10/23 11:40:34;;;;;;;7.30;3.17;;;;;;;14.09;47.98;97687.66;5050739;28;20467;-65
2021/10/23 11:43:00;;;;;;;4.90;2.50;;;;;;;14.35;47.12;97689.31;5031243;28;20469;-66